Time;durP1;ratioP1;P1;durP2;ratioP2;P2;SDS_P1;SDS_P2;PMS_P1;PMS_P2;Temp;Humidity;BMP_temperature;BMP_pressure;BME280_temperature;BME280_humidity;BME280_pressure;Samples;Min_cycle;Max_cycle;Signal;HPM_P1;HPM_P2
2023/10/19 00:05:00;;;;;;;6.82;6.13;;;;;;;8.36;100.00;96933.63;15262426;19;20093;-49
2023/10/19 00:10:31;;;;;;;6.73;6.07;;;;;;;8.40;100.00;96919.66;15270086;19;20090;-50
2023/10/19 00:15:58;;;;;;;6.45;5.90;;;;;;;8.42;100.00;96908.72;15266727;19;20014;-50
2023/10/19 00:21:23;;;;;;;7.28;6.45;;;;;;;8.45;100.00;96909.22;15267912;19;20467;-52
2023/10/19 00:26:53;;;;;;;6.90;6.13;;;;;;;8.46;100.00;96901.97;15264801;19;20010;-53
2023/10/19 00:32:19;;;;;;;7.10;6.40;;;;;;;8.49;100.00;96904.34;15267362;19;20611;-50
2023/10/19 00:37:44;;;;;;;7.82;6.55;;;;;;;8.50;100.00;96897.94;15260742;19;20021;-51
2023/10/19 00:43:17;;;;;;;8.32;6.90;;;;;;;8.48;100.00;96884.69;15268370;19;20020;-50
2023/10/19 00:48:43;;;;;;;8.73;6.65;;;;;;;8.50;100.00;96883.69;15266570;19;20015;-53
2023/10/19 00:54:12;;;;;;;7.53;6.82;;;;;;;8.48;100.00;96868.59;15264626;19;20748;-52
2023/10/19 00:59:43;;;;;;;8.95;7.05;;;;;;;8.44;100.00;96877.16;15263699;19;20015;-49
2023/10/19 01:05:12;;;;;;;10.63;7.60;;;;;;;8.33;100.00;96879.31;15276443;19;20014;-50
2023/10/19 01:10:39;;;;;;;9.85;7.80;;;;;;;8.30;100.00;96885.03;15273890;19;20017;-49
2023/10/19 01:16:08;;;;;;;9.18;8.27;;;;;;;8.29;100.00;96883.38;15276526;19;20406;-49
2023/10/19 01:21:38;;;;;;;9.43;8.35;;;;;;;8.25;100.00;96892.81;15279949;19;20018;-49
2023/10/19 01:27:08;;;;;;;9.57;8.57;;;;;;;8.24;100.00;96888.47;15272256;19;20015;-50
2023/10/19 01:32:33;;;;;;;9.32;8.35;;;;;;;8.22;100.00;96885.13;15279192;19;20010;-49
2023/10/19 01:38:00;;;;;;;10.32;9.13;;;;;;;8.18;100.00;96886.50;15272647;19;20482;-51
2023/10/19 01:43:30;;;;;;;10.25;9.25;;;;;;;8.17;100.00;96883.00;15271905;19;20868;-48
2023/10/19 01:48:57;;;;;;;10.05;9.05;;;;;;;8.17;100.00;96884.88;15275883;19;20030;-51
2023/10/19 01:54:23;;;;;;;9.52;8.48;;;;;;;8.16;100.00;96886.69;15276019;19;20018;-48
2023/10/19 01:59:51;;;;;;;10.02;9.02;;;;;;;8.12;100.00;96885.41;15273832;19;20014;-49
2023/10/19 02:05:23;;;;;;;10.55;9.45;;;;;;;8.12;100.00;96879.22;15266311;19;20019;-50
2023/10/19 02:10:51;;;;;;;10.85;8.90;;;;;;;8.13;100.00;96881.69;15274702;19;20014;-48
2023/10/19 02:16:21;;;;;;;10.40;9.40;;;;;;;8.13;100.00;96875.50;15264549;19;20021;-49
2023/10/19 02:21:48;;;;;;;10.93;8.57;;;;;;;8.13;100.00;96878.19;15275491;19;20018;-49
2023/10/19 02:27:12;;;;;;;10.15;9.05;;;;;;;8.10;100.00;96868.69;15270432;19;20496;-48
2023/10/19 02:32:53;;;;;;;11.00;9.50;;;;;;;8.11;100.00;96878.41;15276113;19;20342;-50
2023/10/19 02:38:22;;;;;;;10.15;9.25;;;;;;;8.12;100.00;96874.66;15263899;19;20014;-49
2023/10/19 02:43:51;;;;;;;10.32;9.38;;;;;;;8.11;100.00;96878.41;15274751;19;20082;-50
2023/10/19 02:49:20;;;;;;;10.93;9.82;;;;;;;8.12;100.00;96863.13;15267200;19;20025;-53
2023/10/19 02:54:46;;;;;;;10.32;9.32;;;;;;;8.12;100.00;96836.28;15269800;19;20039;-49
2023/10/19 03:00:14;;;;;;;10.90;9.80;;;;;;;8.11;100.00;96831.94;15266112;19;20022;-48
2023/10/19 03:05:50;;;;;;;10.65;9.40;;;;;;;8.11;100.00;96840.84;15266313;19;20031;-52
2023/10/19 03:11:17;;;;;;;10.70;9.70;;;;;;;8.11;100.00;96837.31;15266657;19;20025;-50
2023/10/19 03:16:42;;;;;;;11.23;10.02;;;;;;;8.11;100.00;96837.31;15268185;19;20014;-50
2023/10/19 03:22:11;;;;;;;12.13;10.93;;;;;;;8.08;100.00;96832.31;15271930;19;20060;-52
2023/10/19 03:27:29;;;;;;;12.73;11.32;;;;;;;8.04;100.00;96825.66;15269634;19;20014;-49
2023/10/19 03:32:53;;;;;;;12.32;11.13;;;;;;;7.98;100.00;96830.75;15270305;19;20022;-53
2023/10/19 03:38:22;;;;;;;12.73;11.35;;;;;;;7.98;100.00;96824.56;15269767;19;20014;-50
2023/10/19 03:43:48;;;;;;;12.73;11.45;;;;;;;8.00;100.00;96811.78;15263913;19;20035;-53
2023/10/19 03:49:13;;;;;;;13.30;11.90;;;;;;;8.01;100.00;96819.66;15270602;19;20010;-51
2023/10/19 03:54:41;;;;;;;12.38;11.07;;;;;;;8.06;100.00;96815.56;15268495;19;20022;-53
2023/10/19 04:00:15;;;;;;;12.25;11.02;;;;;;;8.07;100.00;96807.34;15266575;19;20404;-51
2023/10/19 04:05:41;;;;;;;12.40;11.20;;;;;;;8.08;100.00;96806.34;15263746;19;20025;-53
2023/10/19 04:11:21;;;;;;;12.38;11.18;;;;;;;8.12;100.00;96788.03;15270526;19;20467;-53
2023/10/19 04:16:48;;;;;;;12.93;11.63;;;;;;;8.13;100.00;96782.47;15261879;19;20019;-52
2023/10/19 04:22:22;;;;;;;12.07;10.90;;;;;;;8.17;100.00;96777.56;15270965;19;20014;-50
2023/10/19 04:27:49;;;;;;;12.68;11.35;;;;;;;8.21;100.00;96765.44;15266008;19;20042;-49
2023/10/19 04:33:16;;;;;;;12.00;10.80;;;;;;;8.23;100.00;96763.41;15265829;19;20026;-53
2023/10/19 04:38:40;;;;;;;12.02;10.88;;;;;;;8.25;100.00;96766.75;15274155;19;20077;-52
2023/10/19 04:44:08;;;;;;;12.40;11.20;;;;;;;8.29;100.00;96768.00;15282298;19;20025;-48
2023/10/19 04:49:32;;;;;;;11.85;10.68;;;;;;;8.32;100.00;96764.94;15280385;19;20475;-49
2023/10/19 04:54:57;;;;;;;10.55;9.55;;;;;;;8.37;100.00;96764.38;15280778;19;20528;-53
2023/10/19 05:00:27;;;;;;;11.90;10.77;;;;;;;8.37;100.00;96752.84;15278957;19;20010;-48
2023/10/19 05:05:54;;;;;;;13.25;10.85;;;;;;;8.38;100.00;96758.00;15277033;19;20010;-52
2023/10/19 05:11:18;;;;;;;10.82;9.73;;;;;;;8.43;100.00;96742.19;15282059;19;20073;-50
2023/10/19 05:16:46;;;;;;;11.70;10.60;;;;;;;8.47;100.00;96742.63;15275894;19;20487;-49
2023/10/19 05:22:11;;;;;;;10.82;9.82;;;;;;;8.54;100.00;96751.59;15274850;19;20022;-48
2023/10/19 05:27:36;;;;;;;11.23;10.00;;;;;;;8.56;100.00;96752.25;15279795;19;20006;-49
2023/10/19 05:33:04;;;;;;;11.82;10.73;;;;;;;8.59;100.00;96757.25;15280204;19;20011;-49
2023/10/19 05:38:31;;;;;;;12.40;11.18;;;;;;;8.63;100.00;96763.06;15277851;19;20014;-52
2023/10/19 05:43:56;;;;;;;12.55;11.30;;;;;;;8.68;100.00;96759.81;15279086;19;20060;-55
2023/10/19 05:49:24;;;;;;;14.77;11.20;;;;;;;8.70;100.00;96763.94;15277516;19;20010;-52
2023/10/19 05:54:49;;;;;;;12.63;10.90;;;;;;;8.75;100.00;96772.28;15273624;19;20033;-53
2023/10/19 06:00:15;;;;;;;12.18;10.88;;;;;;;8.81;100.00;96775.25;15276603;19;20014;-52
2023/10/19 06:05:43;;;;;;;10.90;9.65;;;;;;;8.84;100.00;96775.69;15271654;19;20053;-50
2023/10/19 06:11:08;;;;;;;11.48;10.38;;;;;;;8.91;100.00;96811.47;15281045;19;20015;-82
2023/10/19 06:16:33;;;;;;;11.13;10.00;;;;;;;8.95;100.00;96793.13;15289764;19;20047;-80
2023/10/19 06:22:02;;;;;;;10.70;9.55;;;;;;;9.03;100.00;96816.34;15292344;19;20023;-82
2023/10/19 06:27:26;;;;;;;10.77;9.05;;;;;;;9.06;100.00;96811.41;15338993;19;20021;-82
2023/10/19 06:32:53;;;;;;;8.90;8.00;;;;;;;9.15;100.00;96804.06;15297614;19;20036;-81
2023/10/19 06:38:20;;;;;;;8.45;7.50;;;;;;;9.21;100.00;96814.06;15279155;19;20043;-82
2023/10/19 06:43:46;;;;;;;9.02;8.05;;;;;;;9.29;100.00;96818.44;15280793;19;20013;-82
2023/10/19 06:49:10;;;;;;;7.80;7.00;;;;;;;9.34;100.00;96818.72;15283072;19;20026;-82
2023/10/19 06:54:38;;;;;;;7.90;7.05;;;;;;;9.39;100.00;96818.13;15291177;19;20088;-83
2023/10/19 07:00:14;;;;;;;6.47;5.47;;;;;;;9.46;100.00;96821.72;15285207;19;20090;-81
2023/10/19 07:05:39;;;;;;;5.55;5.05;;;;;;;9.56;100.00;96824.91;15288022;19;20007;-83
2023/10/19 07:11:07;;;;;;;6.97;5.13;;;;;;;9.66;100.00;96815.69;15283036;19;20029;-81
2023/10/19 07:16:32;;;;;;;5.35;4.85;;;;;;;9.75;100.00;96802.94;15282046;19;20028;-82
2023/10/19 07:21:57;;;;;;;5.00;4.60;;;;;;;9.80;100.00;96812.06;15282305;19;20011;-82
2023/10/19 07:27:28;;;;;;;4.57;4.20;;;;;;;9.90;100.00;96816.25;15286130;19;20027;-85
2023/10/19 07:32:58;;;;;;;4.50;4.10;;;;;;;9.95;100.00;96808.41;15284369;19;20027;-81
2023/10/19 07:38:25;;;;;;;4.30;3.90;;;;;;;10.02;100.00;96820.88;15285564;19;20018;-81
2023/10/19 07:43:52;;;;;;;4.10;3.80;;;;;;;10.06;100.00;96818.63;15285975;19;20018;-86
2023/10/19 07:49:17;;;;;;;3.70;3.40;;;;;;;10.09;100.00;96831.69;15286777;19;20470;-83
2023/10/19 07:54:42;;;;;;;3.97;3.58;;;;;;;10.20;100.00;96816.00;15290719;19;20010;-84
2023/10/19 08:00:13;;;;;;;4.13;3.53;;;;;;;10.33;100.00;96826.84;15278384;19;20017;-82
2023/10/19 08:05:38;;;;;;;3.83;3.53;;;;;;;10.46;100.00;96835.03;15285270;19;20017;-81
2023/10/19 08:11:04;;;;;;;4.43;3.53;;;;;;;10.60;100.00;96822.44;15289762;19;20310;-85
2023/10/19 08:16:31;;;;;;;3.70;3.40;;;;;;;10.77;100.00;96822.94;15298839;19;20014;-81
2023/10/19 08:21:57;;;;;;;3.42;3.13;;;;;;;11.00;100.00;96821.75;15296338;19;20023;-81
2023/10/19 08:27:23;;;;;;;3.28;2.97;;;;;;;11.18;100.00;96829.25;15303974;19;20035;-81
2023/10/19 08:32:51;;;;;;;3.15;2.88;;;;;;;11.30;100.00;96826.78;15291781;19;20492;-82
2023/10/19 08:38:15;;;;;;;3.15;2.85;;;;;;;11.44;100.00;96827.63;15301307;19;20014;-79
2023/10/19 08:43:40;;;;;;;4.10;2.90;;;;;;;11.66;100.00;96824.72;15302866;19;20010;-80
2023/10/19 08:55:14;;;;;;;3.10;2.80;;;;;;;12.07;100.00;96820.16;15300123;19;20002;-81
2023/10/19 09:00:56;;;;;;;3.50;3.20;;;;;;;12.18;100.00;96816.81;15298550;19;20018;-83
2023/10/19 09:06:23;;;;;;;3.80;3.17;;;;;;;12.32;100.00;96807.63;15301735;19;20019;-78
2023/10/19 09:11:52;;;;;;;3.22;2.92;;;;;;;12.46;100.00;96813.84;15298646;19;20006;-79
2023/10/19 09:17:17;;;;;;;3.58;3.20;;;;;;;12.53;100.00;96804.88;15302381;19;20545;-79
2023/10/19 09:22:44;;;;;;;3.80;3.40;;;;;;;12.66;100.00;96802.13;15294435;19;20473;-82
2023/10/19 09:28:13;;;;;;;3.75;3.40;;;;;;;12.81;100.00;96788.34;15302278;19;20010;-77
2023/10/19 09:33:39;;;;;;;3.38;3.08;;;;;;;12.91;100.00;96796.78;15301496;19;20007;-81
2023/10/19 09:39:04;;;;;;;3.97;3.50;;;;;;;12.95;100.00;96806.13;15289916;19;20086;-81
2023/10/19 09:44:36;;;;;;;4.53;3.50;;;;;;;13.05;100.00;96810.25;15305450;19;20010;-80
2023/10/19 09:50:02;;;;;;;4.32;3.60;;;;;;;13.00;100.00;96801.94;15307686;19;20010;-78
2023/10/19 09:55:36;;;;;;;4.43;4.03;;;;;;;12.92;100.00;96797.66;15313725;19;20007;-81
2023/10/19 10:01:11;;;;;;;4.30;3.60;;;;;;;12.97;100.00;96807.81;15347162;19;20014;-80
2023/10/19 10:07:00;;;;;;;4.90;4.00;;;;;;;13.18;100.00;96793.09;15285925;19;20013;-79
2023/10/19 10:12:28;;;;;;;3.67;3.38;;;;;;;13.45;100.00;96785.69;15287584;19;20039;-80
2023/10/19 10:18:04;;;;;;;5.95;3.88;;;;;;;13.70;100.00;96761.31;15289455;19;20014;-79
2023/10/19 10:23:32;;;;;;;4.10;3.55;;;;;;;13.86;100.00;96748.25;15290151;19;20104;-79
2023/10/19 10:29:19;;;;;;;3.60;3.30;;;;;;;13.97;100.00;96746.69;15289209;19;20007;-80
2023/10/19 10:34:52;;;;;;;4.13;3.20;;;;;;;14.10;100.00;96753.84;15285748;19;20365;-79
2023/10/19 10:40:18;;;;;;;3.55;3.25;;;;;;;14.14;100.00;96741.50;15288144;19;20030;-81
2023/10/19 10:45:44;;;;;;;3.55;3.25;;;;;;;14.17;100.00;96720.19;15290059;19;20015;-79
2023/10/19 10:51:11;;;;;;;4.35;3.78;;;;;;;14.20;100.00;96715.38;15287536;19;20070;-79
2023/10/19 10:56:43;;;;;;;3.40;3.03;;;;;;;14.25;100.00;96710.13;15296576;19;20090;-80
2023/10/19 11:02:08;;;;;;;4.35;3.40;;;;;;;14.20;100.00;96701.84;15296599;19;20011;-80
2023/10/19 11:07:36;;;;;;;3.45;3.15;;;;;;;14.21;100.00;96704.34;15299624;19;20431;-81
2023/10/19 11:13:09;;;;;;;3.35;2.95;;;;;;;14.39;100.00;96708.91;15294203;19;20070;-81
2023/10/19 11:18:35;;;;;;;3.17;2.85;;;;;;;14.54;100.00;96700.38;15302827;19;20416;-79
2023/10/19 11:24:03;;;;;;;3.17;2.88;;;;;;;14.63;100.00;96693.56;15306394;19;20429;-80
2023/10/19 11:29:27;;;;;;;2.95;2.40;;;;;;;14.73;100.00;96684.94;15293104;19;20033;-81
2023/10/19 11:34:52;;;;;;;3.60;2.67;;;;;;;14.78;100.00;96676.09;15300143;19;20010;-79
2023/10/19 11:40:19;;;;;;;2.55;2.35;;;;;;;14.91;100.00;96658.81;15303463;19;20014;-81
2023/10/19 11:45:45;;;;;;;2.60;2.40;;;;;;;15.00;100.00;96667.44;15298903;19;20039;-80
2023/10/19 11:51:11;;;;;;;2.60;2.30;;;;;;;15.16;100.00;96657.78;15296939;19;20019;-82
2023/10/19 11:56:39;;;;;;;2.85;2.10;;;;;;;15.29;100.00;96654.84;15301057;19;20042;-80
2023/10/19 12:02:06;;;;;;;2.65;2.20;;;;;;;15.46;100.00;96635.16;15289279;19;20078;-79
2023/10/19 12:07:32;;;;;;;2.05;1.70;;;;;;;15.72;100.00;96631.94;15290834;19;20014;-81
2023/10/19 12:13:08;;;;;;;1.70;1.60;;;;;;;15.95;100.00;96618.59;15279334;19;20541;-80
2023/10/19 12:18:34;;;;;;;1.70;1.60;;;;;;;16.08;100.00;96602.00;15282039;19;20026;-81
2023/10/19 12:23:59;;;;;;;2.10;1.42;;;;;;;16.29;100.00;96607.84;15284970;19;20030;-81
2023/10/19 12:29:27;;;;;;;2.00;1.40;;;;;;;16.50;100.00;96598.19;15291223;19;20017;-81
2023/10/19 12:34:56;;;;;;;2.55;1.30;;;;;;;16.54;100.00;96599.31;15287626;19;20015;-80
2023/10/19 12:40:31;;;;;;;1.45;1.27;;;;;;;16.52;100.00;96573.44;15298842;19;20053;-79
2023/10/19 12:45:59;;;;;;;1.15;1.05;;;;;;;16.56;100.00;96580.88;15304158;19;20035;-81
2023/10/19 12:51:25;;;;;;;1.50;1.00;;;;;;;16.57;100.00;96573.56;15298477;19;20017;-80
2023/10/19 12:56:53;;;;;;;1.30;1.10;;;;;;;16.69;100.00;96573.47;15291797;19;20044;-81
2023/10/19 13:02:20;;;;;;;1.70;0.95;;;;;;;16.90;100.00;96556.41;15308123;19;20025;-80
2023/10/19 13:07:49;;;;;;;1.25;0.90;;;;;;;16.98;100.00;96538.06;15321314;19;20014;-80
2023/10/19 13:13:17;;;;;;;1.05;0.82;;;;;;;16.92;100.00;96518.09;15320488;19;20018;-81
2023/10/19 13:18:45;;;;;;;1.88;1.02;;;;;;;16.75;100.00;96518.94;15306461;19;20026;-82
2023/10/19 13:24:14;;;;;;;1.73;1.00;;;;;;;16.71;100.00;96496.03;15306571;19;20006;-79
2023/10/19 13:29:41;;;;;;;2.95;1.00;;;;;;;16.70;100.00;96509.88;15304651;19;20016;-79
2023/10/19 13:35:10;;;;;;;1.95;1.00;;;;;;;16.75;100.00;96521.66;15309117;19;20081;-80
2023/10/19 13:40:37;;;;;;;1.17;0.80;;;;;;;16.76;100.00;96527.91;15300442;19;20042;-80
2023/10/19 13:46:07;;;;;;;1.00;0.80;;;;;;;16.75;100.00;96512.69;15356092;19;20006;-79
2023/10/19 13:51:28;;;;;;;1.20;0.80;;;;;;;16.68;100.00;96512.00;15306523;19;20034;-81
2023/10/19 13:56:53;;;;;;;1.25;1.00;;;;;;;16.59;100.00;96500.72;15295814;19;20006;-81
2023/10/19 14:02:19;;;;;;;1.05;0.90;;;;;;;16.76;100.00;96487.13;15286738;19;20011;-80
2023/10/19 14:07:48;;;;;;;0.70;0.70;;;;;;;16.91;100.00;96462.88;15121602;19;2005182;-80
2023/10/19 14:13:14;;;;;;;1.55;0.88;;;;;;;17.06;100.00;96456.03;15287356;19;20006;-82
2023/10/19 14:18:40;;;;;;;1.15;0.95;;;;;;;17.20;100.00;96443.72;15291745;19;20022;-81
2023/10/19 14:24:08;;;;;;;0.90;0.80;;;;;;;17.33;100.00;96445.22;15283106;19;20029;-80
2023/10/19 14:29:33;;;;;;;1.10;0.90;;;;;;;17.19;100.00;96444.78;15284810;19;20014;-80
2023/10/19 14:34:58;;;;;;;1.20;1.10;;;;;;;16.77;100.00;96450.69;15290527;19;20544;-81
2023/10/19 14:40:27;;;;;;;1.23;1.00;;;;;;;16.34;100.00;96439.47;15290245;19;20481;-79
2023/10/19 14:45:52;;;;;;;1.10;0.95;;;;;;;16.10;100.00;96457.81;15291266;19;20022;-79
2023/10/19 14:51:17;;;;;;;1.90;1.10;;;;;;;15.88;100.00;96455.00;15288980;19;20014;-81
2023/10/19 14:56:46;;;;;;;1.90;1.10;;;;;;;15.69;100.00;96464.13;15291188;19;20043;-80
2023/10/19 15:02:12;;;;;;;3.80;1.30;;;;;;;15.57;100.00;96457.91;15288945;19;20027;-78
2023/10/19 15:07:37;;;;;;;1.15;1.05;;;;;;;15.46;100.00;96467.75;15295031;19;20007;-83
2023/10/19 15:13:05;;;;;;;3.30;1.42;;;;;;;15.35;100.00;96469.41;15294422;19;20078;-84
2023/10/19 15:18:30;;;;;;;2.13;1.40;;;;;;;15.21;100.00;96473.47;15295807;19;20014;-82
2023/10/19 15:23:55;;;;;;;1.83;1.30;;;;;;;15.09;100.00;96471.59;15299819;19;20051;-82
2023/10/19 15:29:23;;;;;;;2.15;1.30;;;;;;;14.98;100.00;96463.47;15294295;19;20031;-83
2023/10/19 15:34:49;;;;;;;2.95;1.30;;;;;;;14.89;100.00;96452.16;15291774;19;20030;-83
2023/10/19 15:40:16;;;;;;;2.25;1.50;;;;;;;14.78;100.00;96464.69;15298038;19;20014;-81
2023/10/19 15:45:39;;;;;;;3.63;1.42;;;;;;;14.66;100.00;96475.47;15289549;19;20031;-78
2023/10/19 15:51:06;;;;;;;2.05;1.55;;;;;;;14.59;100.00;96455.81;15293469;19;20018;-78
2023/10/19 15:56:31;;;;;;;2.17;1.60;;;;;;;14.53;100.00;96462.16;15292644;19;20019;-82
2023/10/19 16:01:58;;;;;;;1.73;1.52;;;;;;;14.43;100.00;96452.75;15285506;19;20031;-79
2023/10/19 16:07:25;;;;;;;2.47;1.70;;;;;;;14.36;100.00;96449.31;15284796;19;20477;-80
2023/10/19 16:12:57;;;;;;;3.45;2.20;;;;;;;14.29;100.00;96456.72;15282667;19;20027;-81
2023/10/19 16:18:26;;;;;;;2.40;2.00;;;;;;;14.25;100.00;96453.66;15282740;19;20015;-80
2023/10/19 16:23:52;;;;;;;2.35;2.00;;;;;;;14.25;100.00;96455.56;15274456;19;20059;-82
2023/10/19 16:29:18;;;;;;;3.00;2.08;;;;;;;14.24;100.00;96452.00;15284732;19;20097;-82
2023/10/19 16:34:46;;;;;;;2.58;2.20;;;;;;;14.24;100.00;96459.31;15289934;19;20015;-80
2023/10/19 16:40:14;;;;;;;2.38;1.90;;;;;;;14.19;100.00;96446.47;15296293;19;20018;-78
2023/10/19 16:45:38;;;;;;;2.53;2.05;;;;;;;14.14;100.00;96449.91;15292184;19;20017;-81
2023/10/19 16:51:07;;;;;;;2.72;1.80;;;;;;;14.13;100.00;96450.94;15293502;19;20021;-82
2023/10/19 16:56:32;;;;;;;3.28;1.70;;;;;;;14.11;100.00;96439.53;15298721;19;20049;-79
2023/10/19 17:01:57;;;;;;;2.30;2.10;;;;;;;14.05;100.00;96429.63;15292691;19;20051;-80
2023/10/19 17:07:24;;;;;;;3.83;2.47;;;;;;;14.01;100.00;96431.97;15290830;19;20031;-79
2023/10/19 17:12:48;;;;;;;2.65;2.20;;;;;;;14.00;100.00;96421.38;15293330;19;20538;-81
2023/10/19 17:18:14;;;;;;;3.90;2.60;;;;;;;13.98;100.00;96427.03;15277828;19;20047;-81
2023/10/19 17:23:42;;;;;;;3.67;2.55;;;;;;;13.99;100.00;96423.25;15303677;19;20398;-79
2023/10/19 17:29:11;;;;;;;3.13;2.40;;;;;;;13.97;100.00;96427.25;15303419;19;20022;-79
2023/10/19 17:34:44;;;;;;;4.05;2.60;;;;;;;13.94;100.00;96427.69;15345568;19;20043;-83
2023/10/19 17:40:13;;;;;;;3.72;2.88;;;;;;;13.95;100.00;96429.34;15303491;19;20021;-83
2023/10/19 17:45:39;;;;;;;3.30;2.70;;;;;;;13.94;100.00;96425.00;15284619;19;20531;-78
2023/10/19 17:51:05;;;;;;;3.20;2.80;;;;;;;13.88;100.00;96413.22;15289016;19;20021;-81
2023/10/19 17:56:32;;;;;;;3.55;2.72;;;;;;;13.83;100.00;96408.50;15289764;19;20026;-81
2023/10/19 18:02:00;;;;;;;3.30;3.00;;;;;;;13.83;100.00;96416.63;14774648;19;10000407;-80
2023/10/19 18:07:26;;;;;;;5.68;3.17;;;;;;;13.81;100.00;96412.50;15291857;19;20010;-81
2023/10/19 18:13:01;;;;;;;3.92;2.90;;;;;;;13.77;100.00;96406.72;15293384;19;20014;-81
2023/10/19 18:18:28;;;;;;;4.30;2.90;;;;;;;13.75;100.00;96406.13;15294626;19;20006;-81
2023/10/19 18:23:54;;;;;;;5.63;4.22;;;;;;;13.73;100.00;96404.72;15292035;19;20023;-80
2023/10/19 18:29:21;;;;;;;4.20;3.72;;;;;;;13.69;100.00;96388.13;15287568;19;20904;-79
2023/10/19 18:34:47;;;;;;;7.78;4.45;;;;;;;13.65;100.00;96389.63;15285635;19;20481;-80
2023/10/19 18:40:13;;;;;;;7.88;4.90;;;;;;;13.64;100.00;96404.22;15294505;19;20010;-81
2023/10/19 18:45:40;;;;;;;6.43;5.60;;;;;;;13.60;100.00;96409.28;15278470;19;20035;-79
2023/10/19 18:51:07;;;;;;;9.18;6.93;;;;;;;13.62;100.00;96411.75;15283782;19;20027;-80
2023/10/19 18:56:34;;;;;;;10.18;7.50;;;;;;;13.62;100.00;96426.09;15281277;19;20490;-79
2023/10/19 19:02:04;;;;;;;9.27;7.05;;;;;;;13.62;100.00;96406.31;15285646;19;20014;-80
2023/10/19 19:07:28;;;;;;;9.25;7.40;;;;;;;13.59;100.00;96404.91;15287540;19;20051;-77
2023/10/19 19:13:02;;;;;;;9.07;7.20;;;;;;;13.59;100.00;96423.84;15281802;19;20015;-81
2023/10/19 19:18:31;;;;;;;10.45;7.90;;;;;;;13.58;100.00;96418.69;15282108;19;20715;-80
2023/10/19 19:23:58;;;;;;;10.50;8.50;;;;;;;13.53;100.00;96401.25;15285488;19;20078;-80
2023/10/19 19:29:23;;;;;;;10.77;8.55;;;;;;;13.50;100.00;96403.59;15284334;19;20042;-83
2023/10/19 19:34:51;;;;;;;11.77;9.07;;;;;;;13.41;100.00;96397.69;15285291;19;20018;-81
2023/10/19 19:40:22;;;;;;;11.88;8.80;;;;;;;13.37;100.00;96393.75;15283867;19;20479;-79
2023/10/19 19:45:46;;;;;;;12.90;9.38;;;;;;;13.35;100.00;96385.03;15282331;19;20031;-80
2023/10/19 19:51:14;;;;;;;11.48;9.00;;;;;;;13.26;100.00;96396.16;15282614;19;20051;-80
2023/10/19 19:56:39;;;;;;;11.35;9.40;;;;;;;13.16;100.00;96406.69;15280740;19;20021;-83
2023/10/19 20:02:04;;;;;;;11.63;9.77;;;;;;;13.05;100.00;96396.66;15282717;19;20018;-83
2023/10/19 20:07:31;;;;;;;10.45;8.82;;;;;;;13.01;100.00;96415.22;15286641;19;20022;-82
2023/10/19 20:12:57;;;;;;;10.75;8.73;;;;;;;12.95;100.00;96433.16;15284870;19;20022;-83
2023/10/19 20:18:22;;;;;;;10.88;9.13;;;;;;;12.93;100.00;96429.03;15287369;19;20010;-80
2023/10/19 20:23:50;;;;;;;11.02;9.43;;;;;;;12.88;100.00;96413.47;15281804;19;20019;-80
2023/10/19 20:29:15;;;;;;;11.02;9.45;;;;;;;12.81;100.00;96388.41;15283984;19;20025;-80
2023/10/19 20:34:41;;;;;;;10.63;9.30;;;;;;;12.77;100.00;96371.00;15284674;19;20018;-80
2023/10/19 20:40:12;;;;;;;11.55;9.35;;;;;;;12.70;100.00;96370.25;15282298;19;20074;-82
2023/10/19 20:45:37;;;;;;;10.73;9.48;;;;;;;12.60;100.00;96360.81;15283510;19;20074;-80
2023/10/19 20:51:05;;;;;;;11.38;9.88;;;;;;;12.57;100.00;96366.66;15285861;19;20042;-79
2023/10/19 20:56:40;;;;;;;10.80;9.70;;;;;;;12.50;100.00;96390.22;15284621;19;20040;-78
2023/10/19 21:02:05;;;;;;;12.18;9.95;;;;;;;12.46;100.00;96408.75;15282041;19;20529;-79
2023/10/19 21:07:36;;;;;;;13.80;11.30;;;;;;;12.46;100.00;96387.16;15285855;19;20066;-80
2023/10/19 21:13:06;;;;;;;15.57;11.43;;;;;;;12.44;100.00;96377.59;15338540;19;20022;-83
2023/10/19 21:18:31;;;;;;;14.75;11.88;;;;;;;12.43;100.00;96397.56;15295915;19;20010;-80
2023/10/19 21:23:58;;;;;;;15.15;11.68;;;;;;;12.41;100.00;96381.56;15293979;19;20026;-82
2023/10/19 21:29:25;;;;;;;14.02;11.40;;;;;;;12.41;100.00;96380.75;15291105;19;20019;-80
2023/10/19 21:34:50;;;;;;;12.57;11.00;;;;;;;12.44;100.00;96374.91;15294663;19;20454;-84
2023/10/19 21:40:16;;;;;;;14.50;11.45;;;;;;;12.46;100.00;96372.81;15289007;19;20011;-80
2023/10/19 21:45:43;;;;;;;12.82;11.13;;;;;;;12.46;100.00;96360.16;15288388;19;20074;-80
2023/10/19 21:51:08;;;;;;;12.07;10.02;;;;;;;12.46;100.00;96367.41;15286925;19;20010;-80
2023/10/19 21:56:33;;;;;;;12.02;10.82;;;;;;;12.50;100.00;96360.53;15288464;19;20013;-80
2023/10/19 22:02:00;;;;;;;11.18;9.98;;;;;;;12.54;100.00;96350.91;15293205;19;20026;-81
2023/10/19 22:07:27;;;;;;;11.70;9.93;;;;;;;12.51;100.00;96354.06;15291122;19;20042;-81
2023/10/19 22:12:51;;;;;;;12.45;10.13;;;;;;;12.46;100.00;96316.09;15288151;19;20029;-81
2023/10/19 22:18:19;;;;;;;12.23;10.35;;;;;;;12.43;100.00;96322.78;15293177;19;20010;-81
2023/10/19 22:23:45;;;;;;;10.52;9.27;;;;;;;12.46;100.00;96308.00;15294692;19;20023;-83
2023/10/19 22:29:10;;;;;;;11.75;9.82;;;;;;;12.49;100.00;96321.06;15291412;19;20346;-82
2023/10/19 22:34:38;;;;;;;11.60;10.07;;;;;;;12.48;100.00;96327.50;15293554;19;20017;-81
2023/10/19 22:40:06;;;;;;;11.13;9.93;;;;;;;12.49;100.00;96327.25;15294434;19;20018;-81
2023/10/19 22:45:30;;;;;;;11.73;10.07;;;;;;;12.49;100.00;96310.25;15291873;19;20031;-81
2023/10/19 22:50:59;;;;;;;14.48;10.15;;;;;;;12.44;100.00;96305.53;15287808;19;20475;-81
2023/10/19 22:56:25;;;;;;;10.93;9.32;;;;;;;12.45;100.00;96306.34;15288063;19;20321;-80
2023/10/19 23:01:52;;;;;;;10.35;9.25;;;;;;;12.43;100.00;96303.03;15282996;19;20065;-80
2023/10/19 23:07:20;;;;;;;12.18;10.38;;;;;;;12.41;100.00;96308.69;15285469;19;20018;-80
2023/10/19 23:12:46;;;;;;;10.93;9.82;;;;;;;12.44;100.00;96289.34;15285016;19;20012;-80
2023/10/19 23:18:15;;;;;;;11.50;10.23;;;;;;;12.43;100.00;96289.53;15291755;19;20106;-81
2023/10/19 23:23:45;;;;;;;10.65;9.55;;;;;;;12.42;100.00;96282.47;15288651;19;20018;-84
2023/10/19 23:29:12;;;;;;;11.65;9.68;;;;;;;12.43;100.00;96273.34;15289194;19;20031;-84
2023/10/19 23:34:38;;;;;;;11.40;10.00;;;;;;;12.39;100.00;96266.75;15285200;19;20086;-83
2023/10/19 23:40:07;;;;;;;10.27;9.23;;;;;;;12.37;100.00;96268.84;15287509;19;20069;-81
2023/10/19 23:45:33;;;;;;;10.50;9.40;;;;;;;12.31;100.00;96260.59;15285965;19;20035;-80
2023/10/19 23:50:58;;;;;;;11.57;10.25;;;;;;;12.26;100.00;96246.13;15287706;19;20015;-83
2023/10/19 23:56:27;;;;;;;12.25;10.90;;;;;;;12.22;100.00;96240.34;15286543;19;20326;-83
